sensor_id;sensor_type;location;lat;lon;timestamp;pressure;altitude;pressure_sealevel;temperature;humidity
65880;BME280;52661;51.364;6.054;2023-04-06T00:00:59;101416.91;;;5.78;84.11
65880;BME280;52661;51.364;6.054;2023-04-06T00:03:24;101420.72;;;5.77;83.48
65880;BME280;52661;51.364;6.054;2023-04-06T00:05:50;101415.34;;;5.77;82.37
65880;BME280;52661;51.364;6.054;2023-04-06T00:08:15;101407.94;;;5.86;81.38
65880;BME280;52661;51.364;6.054;2023-04-06T00:10:41;101412.06;;;5.84;80.54
65880;BME280;52661;51.364;6.054;2023-04-06T00:13:06;101406.78;;;5.75;80.70
65880;BME280;52661;51.364;6.054;2023-04-06T00:15:32;101411.41;;;5.75;79.70
65880;BME280;52661;51.364;6.054;2023-04-06T00:17:58;101406.69;;;5.72;79.81
65880;BME280;52661;51.364;6.054;2023-04-06T00:20:23;101401.97;;;5.81;79.42
65880;BME280;52661;51.364;6.054;2023-04-06T00:22:49;101403.09;;;5.80;77.71
65880;BME280;52661;51.364;6.054;2023-04-06T00:25:14;101402.44;;;5.71;77.22
65880;BME280;52661;51.364;6.054;2023-04-06T00:27:40;101407.94;;;5.74;77.59
65880;BME280;52661;51.364;6.054;2023-04-06T00:30:07;101407.59;;;5.76;77.87
65880;BME280;52661;51.364;6.054;2023-04-06T00:32:34;101396.22;;;5.82;78.22
65880;BME280;52661;51.364;6.054;2023-04-06T00:35:01;101393.13;;;5.56;78.34
65880;BME280;52661;51.364;6.054;2023-04-06T00:37:26;101397.03;;;5.46;80.76
65880;BME280;52661;51.364;6.054;2023-04-06T00:39:52;101387.63;;;5.28;81.53
65880;BME280;52661;51.364;6.054;2023-04-06T00:42:17;101387.97;;;5.27;81.35
65880;BME280;52661;51.364;6.054;2023-04-06T00:44:50;101385.97;;;5.24;81.49
65880;BME280;52661;51.364;6.054;2023-04-06T00:47:15;101379.34;;;5.09;82.41
65880;BME280;52661;51.364;6.054;2023-04-06T00:49:41;101376.84;;;5.04;84.15
65880;BME280;52661;51.364;6.054;2023-04-06T00:52:06;101380.00;;;5.06;86.18
65880;BME280;52661;51.364;6.054;2023-04-06T00:54:31;101371.31;;;4.88;87.75
65880;BME280;52661;51.364;6.054;2023-04-06T00:56:57;101366.88;;;5.05;88.65
65880;BME280;52661;51.364;6.054;2023-04-06T00:59:22;101358.53;;;4.85;90.64
65880;BME280;52661;51.364;6.054;2023-04-06T01:01:48;101361.03;;;4.90;92.09
65880;BME280;52661;51.364;6.054;2023-04-06T01:04:13;101355.06;;;4.85;91.85
65880;BME280;52661;51.364;6.054;2023-04-06T01:06:38;101355.31;;;4.80;91.35
65880;BME280;52661;51.364;6.054;2023-04-06T01:09:04;101353.75;;;4.91;90.45
65880;BME280;52661;51.364;6.054;2023-04-06T01:11:29;101350.72;;;4.92;88.96
65880;BME280;52661;51.364;6.054;2023-04-06T01:13:55;101346.13;;;4.93;89.18
65880;BME280;52661;51.364;6.054;2023-04-06T01:16:20;101341.53;;;4.93;87.85
65880;BME280;52661;51.364;6.054;2023-04-06T01:18:45;101348.81;;;4.93;87.97
65880;BME280;52661;51.364;6.054;2023-04-06T01:21:11;101344.34;;;4.97;87.05
65880;BME280;52661;51.364;6.054;2023-04-06T01:23:43;101351.84;;;4.91;85.88
65880;BME280;52661;51.364;6.054;2023-04-06T01:26:09;101339.50;;;4.90;85.80
65880;BME280;52661;51.364;6.054;2023-04-06T01:28:34;101335.34;;;4.93;85.09
65880;BME280;52661;51.364;6.054;2023-04-06T01:31:00;101333.09;;;4.83;85.63
65880;BME280;52661;51.364;6.054;2023-04-06T01:33:25;101331.31;;;4.87;85.89
65880;BME280;52661;51.364;6.054;2023-04-06T01:35:50;101329.41;;;4.75;88.19
65880;BME280;52661;51.364;6.054;2023-04-06T01:38:16;101330.41;;;4.71;90.07
65880;BME280;52661;51.364;6.054;2023-04-06T01:40:41;101332.78;;;4.84;87.30
65880;BME280;52661;51.364;6.054;2023-04-06T01:43:06;101327.19;;;4.77;86.45
65880;BME280;52661;51.364;6.054;2023-04-06T01:45:31;101325.25;;;4.66;86.74
65880;BME280;52661;51.364;6.054;2023-04-06T01:47:57;101324.34;;;4.62;87.31
65880;BME280;52661;51.364;6.054;2023-04-06T01:50:22;101323.75;;;4.56;88.90
65880;BME280;52661;51.364;6.054;2023-04-06T01:52:48;101321.69;;;4.74;88.68
65880;BME280;52661;51.364;6.054;2023-04-06T01:55:13;101320.44;;;4.71;88.15
65880;BME280;52661;51.364;6.054;2023-04-06T01:57:38;101318.66;;;4.75;88.20
65880;BME280;52661;51.364;6.054;2023-04-06T02:00:04;101311.69;;;4.62;88.28
65880;BME280;52661;51.364;6.054;2023-04-06T02:02:29;101299.22;;;4.58;89.11
65880;BME280;52661;51.364;6.054;2023-04-06T02:04:55;101300.09;;;4.50;89.70
65880;BME280;52661;51.364;6.054;2023-04-06T02:07:21;101302.78;;;4.37;89.72
65880;BME280;52661;51.364;6.054;2023-04-06T02:09:46;101303.31;;;4.31;90.93
65880;BME280;52661;51.364;6.054;2023-04-06T02:12:11;101300.41;;;4.36;89.13
65880;BME280;52661;51.364;6.054;2023-04-06T02:14:36;101306.78;;;4.31;89.91
65880;BME280;52661;51.364;6.054;2023-04-06T02:17:02;101306.22;;;4.38;88.97
65880;BME280;52661;51.364;6.054;2023-04-06T02:19:27;101302.25;;;4.44;88.79
65880;BME280;52661;51.364;6.054;2023-04-06T02:21:52;101300.66;;;4.43;88.76
65880;BME280;52661;51.364;6.054;2023-04-06T02:24:18;101309.16;;;4.33;89.30
65880;BME280;52661;51.364;6.054;2023-04-06T02:26:43;101298.03;;;4.22;89.52
65880;BME280;52661;51.364;6.054;2023-04-06T02:29:08;101299.25;;;4.25;89.18
65880;BME280;52661;51.364;6.054;2023-04-06T02:31:34;101293.03;;;4.33;87.00
65880;BME280;52661;51.364;6.054;2023-04-06T02:34:00;101287.53;;;4.41;86.63
65880;BME280;52661;51.364;6.054;2023-04-06T02:36:25;101285.50;;;4.26;87.08
65880;BME280;52661;51.364;6.054;2023-04-06T02:38:51;101285.03;;;4.24;86.23
65880;BME280;52661;51.364;6.054;2023-04-06T02:41:16;101282.94;;;4.30;87.31
65880;BME280;52661;51.364;6.054;2023-04-06T02:43:42;101287.34;;;4.14;85.45
65880;BME280;52661;51.364;6.054;2023-04-06T02:46:07;101289.97;;;4.22;83.72
65880;BME280;52661;51.364;6.054;2023-04-06T02:48:32;101292.41;;;4.15;83.58
65880;BME280;52661;51.364;6.054;2023-04-06T02:51:01;101282.22;;;4.21;83.21
65880;BME280;52661;51.364;6.054;2023-04-06T02:53:26;101280.91;;;4.27;82.61
65880;BME280;52661;51.364;6.054;2023-04-06T02:55:52;101275.00;;;4.33;83.58
65880;BME280;52661;51.364;6.054;2023-04-06T02:58:18;101268.78;;;4.21;84.76
65880;BME280;52661;51.364;6.054;2023-04-06T03:00:43;101266.09;;;4.09;86.15
65880;BME280;52661;51.364;6.054;2023-04-06T03:03:08;101263.78;;;4.19;85.63
65880;BME280;52661;51.364;6.054;2023-04-06T03:05:34;101267.00;;;4.25;85.23
65880;BME280;52661;51.364;6.054;2023-04-06T03:07:59;101265.19;;;4.17;85.26
65880;BME280;52661;51.364;6.054;2023-04-06T03:10:24;101271.47;;;4.21;84.64
65880;BME280;52661;51.364;6.054;2023-04-06T03:12:50;101264.63;;;4.11;85.93
65880;BME280;52661;51.364;6.054;2023-04-06T03:15:15;101271.28;;;3.93;86.97
65880;BME280;52661;51.364;6.054;2023-04-06T03:17:40;101268.72;;;3.96;87.28
65880;BME280;52661;51.364;6.054;2023-04-06T03:20:06;101274.47;;;4.07;86.57
65880;BME280;52661;51.364;6.054;2023-04-06T03:22:31;101264.81;;;4.06;86.82
65880;BME280;52661;51.364;6.054;2023-04-06T03:24:56;101263.13;;;4.02;87.22
65880;BME280;52661;51.364;6.054;2023-04-06T03:27:22;101269.09;;;4.07;87.72
65880;BME280;52661;51.364;6.054;2023-04-06T03:29:47;101256.53;;;3.99;88.27
65880;BME280;52661;51.364;6.054;2023-04-06T03:32:12;101256.09;;;3.97;89.21
65880;BME280;52661;51.364;6.054;2023-04-06T03:34:38;101263.78;;;3.98;89.02
65880;BME280;52661;51.364;6.054;2023-04-06T03:37:04;101255.28;;;3.96;89.11
65880;BME280;52661;51.364;6.054;2023-04-06T03:39:30;101252.47;;;3.93;89.75
65880;BME280;52661;51.364;6.054;2023-04-06T03:41:55;101247.47;;;4.04;88.03
65880;BME280;52661;51.364;6.054;2023-04-06T03:44:21;101250.84;;;4.01;87.49
65880;BME280;52661;51.364;6.054;2023-04-06T03:46:46;101254.50;;;3.96;87.92
65880;BME280;52661;51.364;6.054;2023-04-06T03:49:11;101248.69;;;3.94;88.96
65880;BME280;52661;51.364;6.054;2023-04-06T03:51:36;101246.44;;;3.96;88.07
65880;BME280;52661;51.364;6.054;2023-04-06T03:54:02;101244.63;;;3.88;87.66
65880;BME280;52661;51.364;6.054;2023-04-06T03:56:27;101237.28;;;3.97;88.00
65880;BME280;52661;51.364;6.054;2023-04-06T03:58:52;101235.38;;;3.97;91.61
65880;BME280;52661;51.364;6.054;2023-04-06T04:01:18;101241.16;;;3.87;95.53
65880;BME280;52661;51.364;6.054;2023-04-06T04:03:43;101238.06;;;3.97;94.11
65880;BME280;52661;51.364;6.054;2023-04-06T04:06:09;101235.41;;;4.10;92.37
65880;BME280;52661;51.364;6.054;2023-04-06T04:08:34;101234.53;;;4.18;89.43
65880;BME280;52661;51.364;6.054;2023-04-06T04:11:00;101239.00;;;4.14;89.42
65880;BME280;52661;51.364;6.054;2023-04-06T04:13:25;101247.41;;;4.12;90.30
65880;BME280;52661;51.364;6.054;2023-04-06T04:15:51;101238.91;;;4.22;90.22
65880;BME280;52661;51.364;6.054;2023-04-06T04:18:16;101243.16;;;4.23;90.54
65880;BME280;52661;51.364;6.054;2023-04-06T04:20:41;101247.06;;;4.14;90.75
65880;BME280;52661;51.364;6.054;2023-04-06T04:23:07;101239.00;;;4.14;91.61
65880;BME280;52661;51.364;6.054;2023-04-06T04:25:32;101238.56;;;4.12;92.17
65880;BME280;52661;51.364;6.054;2023-04-06T04:27:57;101237.31;;;4.09;92.39
65880;BME280;52661;51.364;6.054;2023-04-06T04:30:23;101243.47;;;4.10;92.81
65880;BME280;52661;51.364;6.054;2023-04-06T04:32:48;101238.56;;;4.12;91.75
65880;BME280;52661;51.364;6.054;2023-04-06T04:35:13;101249.31;;;4.12;92.20
65880;BME280;52661;51.364;6.054;2023-04-06T04:37:40;101245.47;;;4.13;91.77
65880;BME280;52661;51.364;6.054;2023-04-06T04:40:06;101250.00;;;4.21;90.36
65880;BME280;52661;51.364;6.054;2023-04-06T04:42:32;101250.34;;;4.31;90.49
65880;BME280;52661;51.364;6.054;2023-04-06T04:44:57;101252.72;;;4.33;91.12
65880;BME280;52661;51.364;6.054;2023-04-06T04:47:22;101252.00;;;4.24;92.00
65880;BME280;52661;51.364;6.054;2023-04-06T04:49:48;101253.03;;;4.19;92.41
65880;BME280;52661;51.364;6.054;2023-04-06T04:52:13;101241.25;;;4.12;93.20
65880;BME280;52661;51.364;6.054;2023-04-06T04:54:38;101245.47;;;4.01;94.48
65880;BME280;52661;51.364;6.054;2023-04-06T04:57:06;101238.56;;;4.12;93.96
65880;BME280;52661;51.364;6.054;2023-04-06T04:59:31;101250.56;;;4.26;92.72
65880;BME280;52661;51.364;6.054;2023-04-06T05:01:56;101242.97;;;4.28;92.33
65880;BME280;52661;51.364;6.054;2023-04-06T05:04:22;101241.81;;;4.17;94.05
65880;BME280;52661;51.364;6.054;2023-04-06T05:06:48;101246.28;;;4.13;94.96
65880;BME280;52661;51.364;6.054;2023-04-06T05:09:13;101248.97;;;4.13;94.57
65880;BME280;52661;51.364;6.054;2023-04-06T05:11:38;101245.84;;;4.11;95.59
65880;BME280;52661;51.364;6.054;2023-04-06T05:14:04;101245.59;;;4.16;95.02
65880;BME280;52661;51.364;6.054;2023-04-06T05:16:31;101252.44;;;4.14;94.76
65880;BME280;52661;51.364;6.054;2023-04-06T05:18:56;101248.97;;;4.13;93.53
65880;BME280;52661;51.364;6.054;2023-04-06T05:21:22;101244.28;;;4.22;93.26
65880;BME280;52661;51.364;6.054;2023-04-06T05:23:47;101254.81;;;4.27;92.25
65880;BME280;52661;51.364;6.054;2023-04-06T05:26:12;101239.28;;;4.33;90.04
65880;BME280;52661;51.364;6.054;2023-04-06T05:28:37;101248.34;;;4.28;89.58
65880;BME280;52661;51.364;6.054;2023-04-06T05:31:03;101246.88;;;4.31;90.11
65880;BME280;52661;51.364;6.054;2023-04-06T05:33:28;101249.25;;;4.32;90.31
65880;BME280;52661;51.364;6.054;2023-04-06T05:35:54;101244.22;;;4.43;89.79
65880;BME280;52661;51.364;6.054;2023-04-06T05:38:19;101240.47;;;4.23;90.66
65880;BME280;52661;51.364;6.054;2023-04-06T05:40:45;101238.16;;;4.34;90.30
65880;BME280;52661;51.364;6.054;2023-04-06T05:43:10;101242.19;;;4.40;89.94
65880;BME280;52661;51.364;6.054;2023-04-06T05:45:35;101232.47;;;4.47;87.82
65880;BME280;52661;51.364;6.054;2023-04-06T05:48:02;101225.59;;;4.38;88.80
65880;BME280;52661;51.364;6.054;2023-04-06T05:50:27;101237.63;;;4.40;88.21
65880;BME280;52661;51.364;6.054;2023-04-06T05:52:53;101237.72;;;4.44;88.32
65880;BME280;52661;51.364;6.054;2023-04-06T05:55:19;101244.09;;;4.39;88.67
65880;BME280;52661;51.364;6.054;2023-04-06T05:57:44;101236.94;;;4.43;88.65
65880;BME280;52661;51.364;6.054;2023-04-06T06:00:10;101242.56;;;4.51;89.05
65880;BME280;52661;51.364;6.054;2023-04-06T06:02:36;101227.56;;;4.62;87.96
65880;BME280;52661;51.364;6.054;2023-04-06T06:05:01;101228.78;;;4.64;86.53
65880;BME280;52661;51.364;6.054;2023-04-06T06:07:27;101239.53;;;4.52;86.73
65880;BME280;52661;51.364;6.054;2023-04-06T06:09:56;101233.38;;;4.76;86.86
65880;BME280;52661;51.364;6.054;2023-04-06T06:12:21;101236.72;;;4.85;86.59
65880;BME280;52661;51.364;6.054;2023-04-06T06:14:47;101236.84;;;4.88;86.13
65880;BME280;52661;51.364;6.054;2023-04-06T06:17:12;101230.47;;;4.93;85.79
65880;BME280;52661;51.364;6.054;2023-04-06T06:19:37;101225.75;;;5.02;85.80
65880;BME280;52661;51.364;6.054;2023-04-06T06:22:03;101227.66;;;5.02;87.30
65880;BME280;52661;51.364;6.054;2023-04-06T06:24:28;101223.97;;;5.06;86.68
65880;BME280;52661;51.364;6.054;2023-04-06T06:26:53;101228.66;;;5.09;86.88
65880;BME280;52661;51.364;6.054;2023-04-06T06:29:19;101232.34;;;5.17;88.09
65880;BME280;52661;51.364;6.054;2023-04-06T06:31:44;101233.78;;;5.26;87.80
65880;BME280;52661;51.364;6.054;2023-04-06T06:34:09;101226.28;;;5.20;86.07
65880;BME280;52661;51.364;6.054;2023-04-06T06:36:35;101232.47;;;5.20;88.23
65880;BME280;52661;51.364;6.054;2023-04-06T06:39:01;101235.03;;;5.17;87.84
65880;BME280;52661;51.364;6.054;2023-04-06T06:41:28;101238.72;;;5.24;88.89
65880;BME280;52661;51.364;6.054;2023-04-06T06:43:53;101240.63;;;5.24;89.10
65880;BME280;52661;51.364;6.054;2023-04-06T06:46:20;101230.09;;;5.31;88.57
65880;BME280;52661;51.364;6.054;2023-04-06T06:48:45;101229.59;;;5.41;88.95
65880;BME280;52661;51.364;6.054;2023-04-06T06:51:11;101226.31;;;5.47;87.91
65880;BME280;52661;51.364;6.054;2023-04-06T06:53:36;101229.81;;;5.48;86.71
65880;BME280;52661;51.364;6.054;2023-04-06T06:56:02;101228.53;;;5.58;86.74
65880;BME280;52661;51.364;6.054;2023-04-06T06:58:27;101229.78;;;5.60;86.85
65880;BME280;52661;51.364;6.054;2023-04-06T07:00:57;101229.63;;;5.69;86.00
65880;BME280;52661;51.364;6.054;2023-04-06T07:03:22;101224.00;;;5.74;87.06
65880;BME280;52661;51.364;6.054;2023-04-06T07:05:49;101218.84;;;5.69;87.37
65880;BME280;52661;51.364;6.054;2023-04-06T07:08:21;101226.53;;;5.82;87.13
65880;BME280;52661;51.364;6.054;2023-04-06T07:10:47;101229.09;;;5.91;86.53
65880;BME280;52661;51.364;6.054;2023-04-06T07:13:13;101227.28;;;5.95;87.09
65880;BME280;52661;51.364;6.054;2023-04-06T07:15:43;101220.97;;;6.03;87.16
65880;BME280;52661;51.364;6.054;2023-04-06T07:18:08;101220.69;;;6.08;86.85
65880;BME280;52661;51.364;6.054;2023-04-06T07:20:33;101227.44;;;6.14;86.18
65880;BME280;52661;51.364;6.054;2023-04-06T07:22:59;101220.66;;;6.20;86.98
65880;BME280;52661;51.364;6.054;2023-04-06T07:25:24;101220.91;;;6.31;86.54
65880;BME280;52661;51.364;6.054;2023-04-06T07:27:49;101220.22;;;6.34;85.05
65880;BME280;52661;51.364;6.054;2023-04-06T07:30:15;101225.44;;;6.42;84.63
65880;BME280;52661;51.364;6.054;2023-04-06T07:32:40;101220.66;;;6.52;83.12
65880;BME280;52661;51.364;6.054;2023-04-06T07:35:05;101222.06;;;6.61;83.20
65880;BME280;52661;51.364;6.054;2023-04-06T07:37:31;101214.47;;;6.67;84.04
65880;BME280;52661;51.364;6.054;2023-04-06T07:39:56;101218.75;;;6.68;82.70
65880;BME280;52661;51.364;6.054;2023-04-06T07:42:21;101223.09;;;6.72;81.25
65880;BME280;52661;51.364;6.054;2023-04-06T07:44:48;101215.16;;;6.79;80.29
65880;BME280;52661;51.364;6.054;2023-04-06T07:47:13;101207.94;;;6.83;79.21
65880;BME280;52661;51.364;6.054;2023-04-06T07:49:38;101212.63;;;6.86;78.72
65880;BME280;52661;51.364;6.054;2023-04-06T07:52:04;101208.19;;;6.94;79.12
65880;BME280;52661;51.364;6.054;2023-04-06T07:54:29;101208.59;;;6.96;77.10
65880;BME280;52661;51.364;6.054;2023-04-06T07:56:54;101207.56;;;7.01;76.40
65880;BME280;52661;51.364;6.054;2023-04-06T07:59:20;101200.31;;;7.05;76.75
65880;BME280;52661;51.364;6.054;2023-04-06T08:01:45;101207.78;;;7.11;76.81
65880;BME280;52661;51.364;6.054;2023-04-06T08:04:10;101201.75;;;7.18;77.96
65880;BME280;52661;51.364;6.054;2023-04-06T08:06:36;101203.81;;;7.24;76.79
65880;BME280;52661;51.364;6.054;2023-04-06T08:09:02;101202.44;;;7.30;76.38
65880;BME280;52661;51.364;6.054;2023-04-06T08:11:28;101201.34;;;7.35;78.42
65880;BME280;52661;51.364;6.054;2023-04-06T08:13:53;101199.56;;;7.42;78.59
65880;BME280;52661;51.364;6.054;2023-04-06T08:16:19;101202.34;;;7.46;81.79
65880;BME280;52661;51.364;6.054;2023-04-06T08:18:44;101206.69;;;7.51;81.41
65880;BME280;52661;51.364;6.054;2023-04-06T08:21:10;101204.53;;;7.60;81.59
65880;BME280;52661;51.364;6.054;2023-04-06T08:23:35;101216.00;;;7.72;79.89
65880;BME280;52661;51.364;6.054;2023-04-06T08:26:00;101213.78;;;7.78;76.44
65880;BME280;52661;51.364;6.054;2023-04-06T08:28:26;101216.19;;;7.83;74.76
65880;BME280;52661;51.364;6.054;2023-04-06T08:30:51;101220.16;;;7.89;75.80
65880;BME280;52661;51.364;6.054;2023-04-06T08:33:16;101223.66;;;7.89;73.35
65880;BME280;52661;51.364;6.054;2023-04-06T08:35:42;101217.84;;;7.87;72.95
65880;BME280;52661;51.364;6.054;2023-04-06T08:38:07;101221.81;;;7.93;73.96
65880;BME280;52661;51.364;6.054;2023-04-06T08:40:39;101224.22;;;7.99;73.20
65880;BME280;52661;51.364;6.054;2023-04-06T08:43:09;101215.75;;;8.00;73.66
65880;BME280;52661;51.364;6.054;2023-04-06T08:45:36;101225.56;;;8.08;74.89
65880;BME280;52661;51.364;6.054;2023-04-06T08:48:02;101218.28;;;8.12;73.72
65880;BME280;52661;51.364;6.054;2023-04-06T08:50:30;101209.06;;;8.13;73.89
65880;BME280;52661;51.364;6.054;2023-04-06T08:52:55;101214.22;;;8.22;73.95
65880;BME280;52661;51.364;6.054;2023-04-06T08:55:21;101210.03;;;8.24;73.91
65880;BME280;52661;51.364;6.054;2023-04-06T08:57:47;101216.56;;;8.23;74.73
65880;BME280;52661;51.364;6.054;2023-04-06T09:00:13;101204.75;;;8.31;75.25
65880;BME280;52661;51.364;6.054;2023-04-06T09:02:42;101211.22;;;8.27;74.21
65880;BME280;52661;51.364;6.054;2023-04-06T09:05:09;101215.50;;;8.28;75.59
65880;BME280;52661;51.364;6.054;2023-04-06T09:07:37;101210.94;;;8.32;75.94
65880;BME280;52661;51.364;6.054;2023-04-06T09:10:06;101216.44;;;8.35;75.71
65880;BME280;52661;51.364;6.054;2023-04-06T09:12:33;101214.13;;;8.37;76.67
65880;BME280;52661;51.364;6.054;2023-04-06T09:14:59;101209.91;;;8.40;76.40
65880;BME280;52661;51.364;6.054;2023-04-06T09:17:32;101216.22;;;8.48;77.49
65880;BME280;52661;51.364;6.054;2023-04-06T09:20:02;101214.47;;;8.59;77.50
65880;BME280;52661;51.364;6.054;2023-04-06T09:22:38;101223.38;;;8.59;76.70
65880;BME280;52661;51.364;6.054;2023-04-06T09:25:04;101218.75;;;8.60;76.35
65880;BME280;52661;51.364;6.054;2023-04-06T09:27:31;101228.78;;;8.59;77.71
65880;BME280;52661;51.364;6.054;2023-04-06T09:30:07;101223.38;;;8.59;77.85
65880;BME280;52661;51.364;6.054;2023-04-06T09:32:43;101228.13;;;8.66;77.88
65880;BME280;52661;51.364;6.054;2023-04-06T09:35:10;101227.03;;;8.70;78.44
65880;BME280;52661;51.364;6.054;2023-04-06T09:37:35;101221.13;;;8.65;77.34
65880;BME280;52661;51.364;6.054;2023-04-06T09:40:05;101227.72;;;8.64;77.50
65880;BME280;52661;51.364;6.054;2023-04-06T09:42:31;101218.38;;;8.61;78.72
65880;BME280;52661;51.364;6.054;2023-04-06T09:44:56;101222.34;;;8.67;79.49
65880;BME280;52661;51.364;6.054;2023-04-06T09:47:22;101222.72;;;8.66;78.95
65880;BME280;52661;51.364;6.054;2023-04-06T09:49:50;101219.31;;;8.72;81.75
65880;BME280;52661;51.364;6.054;2023-04-06T09:52:16;101220.22;;;8.80;80.33
65880;BME280;52661;51.364;6.054;2023-04-06T09:54:43;101222.97;;;8.83;80.11
65880;BME280;52661;51.364;6.054;2023-04-06T09:57:40;101217.25;;;8.88;80.49
65880;BME280;52661;51.364;6.054;2023-04-06T10:00:11;101214.91;;;8.87;79.65
65880;BME280;52661;51.364;6.054;2023-04-06T10:02:51;101217.31;;;8.92;80.61
65880;BME280;52661;51.364;6.054;2023-04-06T10:05:33;101216.69;;;9.02;80.12
65880;BME280;52661;51.364;6.054;2023-04-06T10:08:05;101223.75;;;9.10;80.58
65880;BME280;52661;51.364;6.054;2023-04-06T10:10:32;101217.34;;;9.22;81.74
65880;BME280;52661;51.364;6.054;2023-04-06T10:12:58;101207.72;;;9.24;81.50
65880;BME280;52661;51.364;6.054;2023-04-06T10:15:23;101223.13;;;9.20;80.45
65880;BME280;52661;51.364;6.054;2023-04-06T10:17:49;101218.50;;;9.21;79.44
65880;BME280;52661;51.364;6.054;2023-04-06T10:20:22;101218.50;;;9.21;78.74
65880;BME280;52661;51.364;6.054;2023-04-06T10:25:32;101222.78;;;9.22;79.85
65880;BME280;52661;51.364;6.054;2023-04-06T10:28:08;101210.78;;;9.23;80.24
65880;BME280;52661;51.364;6.054;2023-04-06T10:30:35;101215.53;;;9.29;80.58
65880;BME280;52661;51.364;6.054;2023-04-06T10:33:17;101214.41;;;9.34;78.56
65880;BME280;52661;51.364;6.054;2023-04-06T10:35:42;101211.47;;;9.46;78.94
65880;BME280;52661;51.364;6.054;2023-04-06T10:38:08;101216.97;;;9.53;78.76
65880;BME280;52661;51.364;6.054;2023-04-06T10:40:38;101227.53;;;9.62;77.08
65880;BME280;52661;51.364;6.054;2023-04-06T10:43:12;101218.41;;;9.77;76.00
65880;BME280;52661;51.364;6.054;2023-04-06T10:45:38;101225.06;;;9.83;75.83
65880;BME280;52661;51.364;6.054;2023-04-06T10:48:14;101215.91;;;9.95;76.84
65880;BME280;52661;51.364;6.054;2023-04-06T10:50:41;101210.88;;;9.97;76.13
65880;BME280;52661;51.364;6.054;2023-04-06T10:53:07;101206.97;;;9.91;74.72
65880;BME280;52661;51.364;6.054;2023-04-06T10:55:32;101206.25;;;9.97;75.88
65880;BME280;52661;51.364;6.054;2023-04-06T10:57:58;101207.91;;;10.09;76.22
65880;BME280;52661;51.364;6.054;2023-04-06T11:00:23;101211.81;;;10.11;75.86
65880;BME280;52661;51.364;6.054;2023-04-06T11:02:49;101211.00;;;10.07;75.77
65880;BME280;52661;51.364;6.054;2023-04-06T11:05:14;101210.44;;;10.28;76.97
65880;BME280;52661;51.364;6.054;2023-04-06T11:07:40;101213.88;;;10.21;77.29
65880;BME280;52661;51.364;6.054;2023-04-06T11:10:07;101212.09;;;10.03;77.41
65880;BME280;52661;51.364;6.054;2023-04-06T11:12:32;101210.53;;;9.98;78.28
65880;BME280;52661;51.364;6.054;2023-04-06T11:14:59;101214.66;;;9.88;78.98
65880;BME280;52661;51.364;6.054;2023-04-06T11:17:36;101209.28;;;9.92;78.10
65880;BME280;52661;51.364;6.054;2023-04-06T11:20:03;101211.63;;;9.94;77.75
65880;BME280;52661;51.364;6.054;2023-04-06T11:22:29;101214.75;;;9.96;78.07
65880;BME280;52661;51.364;6.054;2023-04-06T11:25:07;101215.09;;;9.91;80.60
65880;BME280;52661;51.364;6.054;2023-04-06T11:27:34;101209.91;;;9.78;82.13
65880;BME280;52661;51.364;6.054;2023-04-06T11:30:00;101215.41;;;9.85;83.01
65880;BME280;52661;51.364;6.054;2023-04-06T11:32:26;101204.81;;;9.73;83.19
65880;BME280;52661;51.364;6.054;2023-04-06T11:34:51;101216.38;;;9.67;85.15
65880;BME280;52661;51.364;6.054;2023-04-06T11:37:16;101215.25;;;9.71;87.22
65880;BME280;52661;51.364;6.054;2023-04-06T11:39:51;101223.59;;;9.56;89.47
65880;BME280;52661;51.364;6.054;2023-04-06T11:42:24;101213.41;;;9.46;94.60
65880;BME280;52661;51.364;6.054;2023-04-06T11:44:55;101217.94;;;9.38;95.29
65880;BME280;52661;51.364;6.054;2023-04-06T11:47:27;101212.44;;;9.31;98.15
65880;BME280;52661;51.364;6.054;2023-04-06T11:49:53;101205.44;;;9.30;98.75
65880;BME280;52661;51.364;6.054;2023-04-06T11:52:21;101206.66;;;9.32;100.00
65880;BME280;52661;51.364;6.054;2023-04-06T11:54:48;101212.72;;;9.22;99.34
65880;BME280;52661;51.364;6.054;2023-04-06T11:57:14;101198.06;;;9.27;100.00
65880;BME280;52661;51.364;6.054;2023-04-06T11:59:40;101204.91;;;9.17;100.00
65880;BME280;52661;51.364;6.054;2023-04-06T12:02:05;101206.53;;;9.22;100.00
65880;BME280;52661;51.364;6.054;2023-04-06T12:04:31;101205.22;;;9.12;100.00
65880;BME280;52661;51.364;6.054;2023-04-06T12:06:57;101204.38;;;9.08;100.00
65880;BME280;52661;51.364;6.054;2023-04-06T12:09:22;101218.25;;;9.03;100.00
65880;BME280;52661;51.364;6.054;2023-04-06T12:11:48;101200.34;;;8.95;100.00
65880;BME280;52661;51.364;6.054;2023-04-06T12:14:13;101212.25;;;8.90;100.00
65880;BME280;52661;51.364;6.054;2023-04-06T12:16:40;101205.69;;;8.92;100.00
65880;BME280;52661;51.364;6.054;2023-04-06T12:19:06;101202.06;;;8.80;100.00
65880;BME280;52661;51.364;6.054;2023-04-06T12:21:31;101200.13;;;8.81;100.00
65880;BME280;52661;51.364;6.054;2023-04-06T12:23:57;101208.94;;;8.74;100.00
65880;BME280;52661;51.364;6.054;2023-04-06T12:26:23;101200.28;;;8.65;100.00
65880;BME280;52661;51.364;6.054;2023-04-06T12:28:49;101197.50;;;8.62;100.00
65880;BME280;52661;51.364;6.054;2023-04-06T12:31:16;101205.13;;;8.53;100.00
65880;BME280;52661;51.364;6.054;2023-04-06T12:33:42;101200.47;;;8.53;100.00
65880;BME280;52661;51.364;6.054;2023-04-06T12:36:14;101206.25;;;8.52;100.00
65880;BME280;52661;51.364;6.054;2023-04-06T12:38:43;101210.34;;;8.42;100.00
65880;BME280;52661;51.364;6.054;2023-04-06T12:41:10;101207.66;;;8.42;100.00
65880;BME280;52661;51.364;6.054;2023-04-06T12:43:36;101201.84;;;8.44;100.00
65880;BME280;52661;51.364;6.054;2023-04-06T12:46:01;101196.38;;;8.40;100.00
65880;BME280;52661;51.364;6.054;2023-04-06T12:48:26;101189.22;;;8.28;100.00
65880;BME280;52661;51.364;6.054;2023-04-06T12:51:04;101196.66;;;8.31;100.00
65880;BME280;52661;51.364;6.054;2023-04-06T12:53:30;101178.91;;;8.34;100.00
65880;BME280;52661;51.364;6.054;2023-04-06T12:55:56;101188.53;;;8.31;100.00
65880;BME280;52661;51.364;6.054;2023-04-06T12:58:22;101190.03;;;8.29;100.00